»·PEaware :: N2247T KDAL-KSNA

N2247T :: KDAL-KSNA

FLIGHT INFORMATION

Flight Status: Arrived
Operator: Privately registered:
United States
More flights under this callsign
Pilot: Mike P. (795)
Aircraft: GATES LEARJET LEARJET 35/36
(LJ35)
More flights by this aircraft type
Origin: KDAL Dallas Love
United States
Destination: KSNA John Wayne-Orange Co
United States
More flights between these airports :: More routes between these airports
Route: +PSP KAYOH4
File this flight plan on PilotEdge
Remarks: / V /
Altitude:
(Current/Filed)
26,000ft
Speed:
(Current/Filed)
400kts
Departed: 02-Feb-14 07:08 AM
Arrived: 02-Feb-14 10:04 AM
Distance/Time
Traveled:
1nm/2:56
Distance/Time
To Go:
Arrived

Flight Plot

Page will automatically refresh every two minutes.

Flight plan parsing failed; only flown route is shown


Map Options




Map Legend


Flown Route
Filed Route
Departure Airport
Arrival Airport
Navaid (VOR, NDB)
Fix

Horizontal Profiles

Position Reports

Time Latitude Longitude Heading Altitude Ground
Speed
02-Feb-14 07:02 32.834315 -96.843748 315 491ft 0kts
02-Feb-14 07:04 32.834321 -96.843755 316 491ft 0kts
02-Feb-14 07:04 32.836256 -96.846001 315 491ft 79kts
02-Feb-14 07:06 32.849972 -96.916144 275 3252ft 307kts
02-Feb-14 07:06 32.863118 -97.006394 279 4824ft 323kts
02-Feb-14 07:08 32.884523 -97.129916 279 6967ft 333kts
02-Feb-14 07:08 32.903401 -97.222856 279 8526ft 343kts
02-Feb-14 07:09 32.928886 -97.334120 279 10364ft 340kts
02-Feb-14 07:10 32.955328 -97.444530 280 12199ft 340kts
02-Feb-14 07:12 32.982559 -97.555181 279 14031ft 344kts
02-Feb-14 07:13 33.011270 -97.667457 280 15866ft 351kts
02-Feb-14 07:14 33.041418 -97.781448 280 17698ft 358kts
02-Feb-14 07:15 33.072886 -97.897750 280 19535ft 365kts
02-Feb-14 07:16 33.105869 -98.016026 280 21371ft 372kts
02-Feb-14 07:17 33.140436 -98.136434 280 23207ft 380kts
02-Feb-14 07:18 33.176725 -98.259102 280 25043ft 388kts
02-Feb-14 07:19 33.215026 -98.384272 280 26027ft 399kts
02-Feb-14 07:20 33.254538 -98.511215 280 26052ft 406kts
02-Feb-14 07:21 33.294897 -98.642248 280 26050ft 416kts
02-Feb-14 07:22 33.335813 -98.775190 280 26054ft 419kts
02-Feb-14 07:23 33.376908 -98.908424 280 26051ft 419kts
02-Feb-14 07:24 33.408126 -99.043257 268 26074ft 406kts
02-Feb-14 07:25 33.417461 -99.179794 266 26068ft 402kts
02-Feb-14 07:26 33.426381 -99.315137 266 26065ft 399kts
02-Feb-14 07:27 33.436659 -99.449957 267 26071ft 399kts
02-Feb-14 07:28 33.447690 -99.584897 267 26049ft 399kts
02-Feb-14 07:29 33.458920 -99.719350 267 26068ft 400kts
02-Feb-14 07:30 33.470274 -99.854458 268 26016ft 399kts
02-Feb-14 07:31 33.481546 -99.989228 268 25985ft 398kts
02-Feb-14 07:32 33.492678 -100.123643 268 26016ft 397kts
02-Feb-14 07:33 33.503658 -100.258186 268 26034ft 398kts
02-Feb-14 07:34 33.514517 -100.392610 268 26049ft 398kts
02-Feb-14 07:35 33.525183 -100.526715 268 26037ft 397kts
02-Feb-14 07:36 33.535727 -100.661267 268 26043ft 399kts
02-Feb-14 07:37 33.546161 -100.796155 268 26035ft 399kts
02-Feb-14 07:38 33.556460 -100.931254 269 26022ft 399kts
02-Feb-14 07:39 33.566637 -101.066370 269 26015ft 399kts
02-Feb-14 07:40 33.576661 -101.201661 269 26012ft 400kts
02-Feb-14 07:41 33.586503 -101.336726 269 26014ft 401kts
02-Feb-14 07:42 33.596267 -101.472550 269 26011ft 401kts
02-Feb-14 07:43 33.605985 -101.609707 269 26012ft 401kts
02-Feb-14 07:44 33.615456 -101.745511 269 26011ft 401kts
02-Feb-14 07:45 33.624763 -101.881350 268 26010ft 401kts
02-Feb-14 07:46 33.633872 -102.016675 269 26011ft 400kts
02-Feb-14 07:47 33.642955 -102.153420 269 26011ft 400kts
02-Feb-14 07:48 33.651803 -102.289251 269 26016ft 400kts
02-Feb-14 07:49 33.660511 -102.425083 269 26022ft 400kts
02-Feb-14 07:50 33.669082 -102.560975 269 26026ft 400kts
02-Feb-14 07:51 33.677461 -102.696408 270 26030ft 401kts
02-Feb-14 07:52 33.685695 -102.832181 269 26034ft 401kts
02-Feb-14 07:52 33.692488 -102.946000 270 26021ft 401kts
02-Feb-14 07:53 33.700517 -103.082533 270 26018ft 402kts
02-Feb-14 07:54 33.708395 -103.219316 271 26003ft 404kts
02-Feb-14 07:55 33.716180 -103.356587 271 26002ft 404kts
02-Feb-14 07:56 33.723816 -103.494063 271 25998ft 405kts
02-Feb-14 07:57 33.731258 -103.631133 271 25998ft 405kts
02-Feb-14 07:58 33.738570 -103.768718 271 26000ft 405kts
02-Feb-14 07:59 33.745733 -103.906261 271 25999ft 405kts
02-Feb-14 08:00 33.752747 -104.043873 271 25998ft 405kts
02-Feb-14 08:01 33.759611 -104.181639 271 25986ft 406kts
02-Feb-14 08:02 33.766319 -104.319573 271 25960ft 407kts
02-Feb-14 08:03 33.772918 -104.458360 271 25952ft 408kts
02-Feb-14 08:05 33.779361 -104.597096 271 25901ft 411kts
02-Feb-14 08:06 33.785719 -104.737202 271 25916ft 412kts
02-Feb-14 08:07 33.791947 -104.878365 272 25820ft 418kts
02-Feb-14 08:08 33.798090 -105.020749 272 25796ft 420kts
02-Feb-14 08:09 33.804120 -105.164572 272 25785ft 424kts
02-Feb-14 08:10 33.810061 -105.310269 272 25771ft 425kts
02-Feb-14 08:11 33.815784 -105.454925 272 25788ft 424kts
02-Feb-14 08:12 33.821333 -105.599558 272 25772ft 425kts
02-Feb-14 08:13 33.826691 -105.743628 272 25780ft 424kts
02-Feb-14 08:14 33.831896 -105.888166 272 25786ft 424kts
02-Feb-14 08:15 33.836922 -106.032441 272 25783ft 424kts
02-Feb-14 08:16 33.841828 -106.178141 272 25786ft 423kts
02-Feb-14 08:17 33.846518 -106.322521 271 25780ft 424kts
02-Feb-14 08:18 33.851027 -106.466451 271 25785ft 424kts
02-Feb-14 08:19 33.855419 -106.612127 271 25790ft 423kts
02-Feb-14 08:20 33.859554 -106.755201 272 25853ft 416kts
02-Feb-14 08:21 33.863461 -106.895713 272 25861ft 412kts
02-Feb-14 08:22 33.867178 -107.035171 272 25885ft 407kts
02-Feb-14 08:23 33.870726 -107.173856 272 25888ft 406kts
02-Feb-14 08:24 33.874113 -107.312316 272 25888ft 406kts
02-Feb-14 08:25 33.877349 -107.450851 271 25885ft 407kts
02-Feb-14 08:26 33.880432 -107.589629 271 25885ft 407kts
02-Feb-14 08:27 33.883361 -107.728502 271 25885ft 407kts
02-Feb-14 08:28 33.886132 -107.867281 271 25885ft 407kts
02-Feb-14 08:29 33.888741 -108.005736 271 25888ft 407kts
02-Feb-14 08:30 33.891178 -108.144087 272 25916ft 404kts
02-Feb-14 08:31 33.893455 -108.281262 272 25918ft 401kts
02-Feb-14 08:32 33.895579 -108.417793 272 25926ft 399kts
02-Feb-14 08:33 33.897534 -108.553928 272 25927ft 398kts
02-Feb-14 08:34 33.899317 -108.689342 272 25926ft 396kts
02-Feb-14 08:35 33.900956 -108.823837 272 25930ft 395kts
02-Feb-14 08:36 33.902467 -108.958548 272 25929ft 394kts
02-Feb-14 08:37 33.903817 -109.093135 272 25931ft 394kts
02-Feb-14 08:37 33.904822 -109.205316 272 25930ft 394kts
02-Feb-14 08:38 33.905902 -109.339575 272 25931ft 393kts
02-Feb-14 08:39 33.906832 -109.473586 272 25931ft 392kts
02-Feb-14 08:40 33.907626 -109.606924 272 25930ft 391kts
02-Feb-14 08:41 33.908280 -109.740393 272 25930ft 391kts
02-Feb-14 08:42 33.908773 -109.873773 272 25929ft 391kts
02-Feb-14 08:43 33.909140 -110.007008 272 25930ft 390kts
02-Feb-14 08:44 33.909353 -110.140191 272 25929ft 390kts
02-Feb-14 08:45 33.909410 -110.273236 272 25931ft 389kts
02-Feb-14 08:46 33.909324 -110.406014 272 25933ft 389kts
02-Feb-14 08:47 33.909106 -110.537999 272 25936ft 387kts
02-Feb-14 08:48 33.908756 -110.670109 271 25938ft 387kts
02-Feb-14 08:49 33.908265 -110.801839 271 25933ft 386kts
02-Feb-14 08:50 33.907616 -110.933264 271 25934ft 384kts
02-Feb-14 08:51 33.906840 -111.064275 271 25927ft 383kts
02-Feb-14 08:52 33.905935 -111.195066 271 25933ft 383kts
02-Feb-14 08:54 33.904833 -111.325806 271 25924ft 383kts
02-Feb-14 08:55 33.903658 -111.456528 271 25930ft 383kts
02-Feb-14 08:56 33.902278 -111.587216 271 25927ft 383kts
02-Feb-14 08:57 33.900806 -111.717433 271 25929ft 383kts
02-Feb-14 08:58 33.899357 -111.848060 270 25923ft 383kts
02-Feb-14 08:59 33.897489 -111.978610 271 25926ft 383kts
02-Feb-14 09:00 33.895671 -112.109137 270 25918ft 382kts
02-Feb-14 09:01 33.893637 -112.239594 270 25924ft 382kts
02-Feb-14 09:02 33.891431 -112.369974 270 25912ft 382kts
02-Feb-14 09:03 33.889192 -112.500119 270 25916ft 381kts
02-Feb-14 09:04 33.886861 -112.629075 268 25941ft 375kts
02-Feb-14 09:05 33.884401 -112.756841 268 25945ft 374kts
02-Feb-14 09:06 33.881781 -112.883634 268 25948ft 372kts
02-Feb-14 09:07 33.878948 -113.011973 268 25950ft 372kts
02-Feb-14 09:08 33.876081 -113.138907 268 25949ft 372kts
02-Feb-14 09:09 33.873097 -113.265854 268 25951ft 372kts
02-Feb-14 09:10 33.869962 -113.393518 268 25951ft 372kts
02-Feb-14 09:11 33.867813 -113.520407 270 25955ft 372kts
02-Feb-14 09:12 33.869713 -113.647162 270 25953ft 372kts
02-Feb-14 09:13 33.871564 -113.773823 270 25955ft 371kts
02-Feb-14 09:14 33.872927 -113.900375 270 25957ft 371kts
02-Feb-14 09:15 33.874131 -114.026429 270 25966ft 370kts
02-Feb-14 09:16 33.875101 -114.152765 270 25968ft 370kts
02-Feb-14 09:17 33.875947 -114.279213 270 25805ft 365kts
02-Feb-14 09:18 33.876474 -114.370900 269 24100ft 231kts
02-Feb-14 09:19 33.876810 -114.449299 269 21049ft 231kts
02-Feb-14 09:20 33.877131 -114.529959 269 17777ft 247kts
02-Feb-14 09:21 33.877457 -114.617560 269 14211ft 251kts
02-Feb-14 09:22 33.877693 -114.700144 269 13968ft 235kts
02-Feb-14 09:23 33.877861 -114.778331 269 13973ft 226kts
02-Feb-14 09:24 33.877983 -114.855179 269 13976ft 225kts
02-Feb-14 09:25 33.878022 -114.945345 269 13993ft 313kts
02-Feb-14 09:26 33.878072 -115.056333 269 13981ft 332kts
02-Feb-14 09:27 33.878016 -115.170350 269 14021ft 335kts
02-Feb-14 09:27 33.877879 -115.265442 269 14019ft 335kts
02-Feb-14 09:29 33.877538 -115.399809 269 14023ft 340kts
02-Feb-14 09:30 33.877129 -115.515212 269 14018ft 336kts
02-Feb-14 09:31 33.876618 -115.629398 268 14023ft 334kts
02-Feb-14 09:31 33.876106 -115.724268 268 14021ft 333kts
02-Feb-14 09:32 33.875131 -115.837982 268 14022ft 333kts
02-Feb-14 09:33 33.871778 -115.941942 265 14009ft 276kts
02-Feb-14 09:34 33.865642 -116.033535 265 14015ft 266kts
02-Feb-14 09:35 33.865621 -116.123822 271 14014ft 266kts
02-Feb-14 09:36 33.866896 -116.214406 269 14008ft 265kts
02-Feb-14 09:37 33.868341 -116.305084 270 14013ft 270kts
02-Feb-14 09:38 33.869683 -116.395448 270 13999ft 264kts
02-Feb-14 09:39 33.872154 -116.485768 271 14001ft 265kts
02-Feb-14 09:40 33.876237 -116.576106 271 13999ft 265kts
02-Feb-14 09:41 33.880374 -116.666505 271 13943ft 267kts
02-Feb-14 09:42 33.884195 -116.753569 271 13003ft 228kts
02-Feb-14 09:43 33.887449 -116.828126 271 13001ft 216kts
02-Feb-14 09:45 33.871279 -116.900247 245 11919ft 232kts
02-Feb-14 09:46 33.847127 -116.974499 251 10172ft 235kts
02-Feb-14 09:47 33.823758 -117.044200 248 9996ft 211kts
02-Feb-14 09:48 33.801295 -117.111286 248 9997ft 213kts
02-Feb-14 09:49 33.777610 -117.178196 251 9999ft 213kts
02-Feb-14 09:50 33.777167 -117.251519 268 9369ft 227kts
02-Feb-14 09:51 33.778585 -117.330042 268 8031ft 222kts
02-Feb-14 09:52 33.779704 -117.403176 268 7944ft 210kts
02-Feb-14 09:53 33.780698 -117.475815 268 8003ft 214kts
02-Feb-14 09:54 33.781393 -117.548771 267 8022ft 214kts
02-Feb-14 09:55 33.781521 -117.619213 267 6679ft 198kts
02-Feb-14 09:56 33.781951 -117.684461 267 4635ft 181kts
02-Feb-14 09:57 33.782259 -117.744195 268 3215ft 164kts
02-Feb-14 09:58 33.779365 -117.800285 243 2375ft 163kts
02-Feb-14 09:59 33.741727 -117.826842 202 1436ft 152kts
02-Feb-14 10:00 33.702134 -117.852123 207 552ft 158kts
02-Feb-14 10:01 33.674034 -117.870173 270 60ft 9kts
02-Feb-14 10:03 33.675867 -117.871358 29 60ft 0kts
02-Feb-14 10:04 33.675867 -117.871357 29 60ft 0kts
02-Feb-14 10:05 32.834286 -96.843717 315 491ft 0kts

Navigation Log

Ident Type
Flight plan parsing failed, navigation log unavailable